South Palm Beach, Florida
Current Conditions -  °F | °C
As of 10:53 PM on Friday 24 Oct 2014 (Local Time) from KPBI Reporting Station
Broken Clouds Broken Clouds  
Wind Chill: 77°   Ceiling: 6000
Heat Index: 79°   Visibility: 10mi
Dew Point: 66°   Wind: 13mph
Humidity: 69%   Direction: 20°NNE
Pressure: 29.87"   Gusts: NA
Location:  26.6941°N, 80.0379°W
Report Text: KPBI 250253Z 02011KT 10SM SCT032 BKN060 25/19 A2987 RMK AO2 SLP115 T02500189 53011
Loading
Personal Weather Stations






























Interactive Weather Map
Tropical Storm Tracking
New forecast layout! Learn more

10-Day Weather Forecast

Advertisements
Track Severe Weather on mobile